Time;durP1;ratioP1;P1;durP2;ratioP2;P2;SDS_P1;SDS_P2;PMS_P1;PMS_P2;Temp;Humidity;BMP_temperature;BMP_pressure;BME280_temperature;BME280_humidity;BME280_pressure;Samples;Min_cycle;Max_cycle;Signal;HPM_P1;HPM_P2
2024/03/02 00:00:31;;;;;;;4.03;1.85;;;11.50;99.90;;;;;;4983175;28;20088;-80
2024/03/02 00:02:57;;;;;;;8.35;2.53;;;11.50;99.90;;;;;;4985198;28;20026;-80
2024/03/02 00:05:23;;;;;;;5.53;2.00;;;11.50;99.90;;;;;;4984334;28;20070;-80
2024/03/02 00:07:59;;;;;;;6.82;1.70;;;11.50;99.90;;;;;;4986676;28;20030;-80
2024/03/02 00:10:31;;;;;;;11.05;3.40;;;11.40;99.90;;;;;;4981255;28;20034;-80
2024/03/02 00:12:57;;;;;;;6.05;2.92;;;11.40;99.90;;;;;;4981385;28;20034;-80
2024/03/02 00:15:42;;;;;;;5.30;2.17;;;11.40;99.90;;;;;;4985757;28;20031;-80
2024/03/02 00:18:14;;;;;;;7.18;3.00;;;11.40;99.90;;;;;;4986329;28;20429;-80
2024/03/02 00:20:40;;;;;;;9.98;2.35;;;11.40;99.90;;;;;;4986212;28;20258;-80
2024/03/02 00:23:08;;;;;;;8.02;2.05;;;11.40;99.90;;;;;;4990739;28;20026;-79
2024/03/02 00:25:40;;;;;;;6.55;2.00;;;11.40;99.90;;;;;;4986647;28;20046;-80
2024/03/02 00:28:07;;;;;;;7.38;2.08;;;11.30;99.90;;;;;;4983639;28;20023;-80
2024/03/02 00:30:59;;;;;;;7.47;2.22;;;11.30;99.90;;;;;;4981429;28;20031;-80
2024/03/02 00:33:49;;;;;;;9.32;2.13;;;11.20;99.90;;;;;;4986874;28;20083;-80
2024/03/02 00:36:16;;;;;;;4.00;2.33;;;11.30;99.90;;;;;;4983315;28;20019;-80
2024/03/02 00:38:47;;;;;;;6.40;2.13;;;11.20;99.90;;;;;;4990404;28;20026;-80
2024/03/02 00:41:30;;;;;;;5.22;2.42;;;11.20;99.90;;;;;;4982689;28;20030;-80
2024/03/02 00:44:12;;;;;;;8.65;2.47;;;11.20;99.90;;;;;;4989894;28;20401;-80
2024/03/02 00:46:43;;;;;;;6.20;2.50;;;11.20;99.90;;;;;;4984250;28;20088;-80
2024/03/02 00:49:21;;;;;;;7.18;3.50;;;11.20;99.90;;;;;;4983608;28;20352;-80
2024/03/02 00:51:51;;;;;;;5.93;2.55;;;11.20;99.90;;;;;;4987415;28;20321;-80
2024/03/02 00:54:26;;;;;;;11.70;3.47;;;11.10;99.90;;;;;;4978263;28;20027;-80
2024/03/02 00:56:55;;;;;;;5.57;2.33;;;11.10;99.90;;;;;;4986360;28;20524;-80
2024/03/02 00:59:21;;;;;;;6.10;2.50;;;11.10;99.90;;;;;;4979388;28;20030;-80
2024/03/02 01:01:49;;;;;;;3.55;1.75;;;11.10;99.90;;;;;;4984263;28;20039;-80
2024/03/02 01:04:14;;;;;;;5.15;1.45;;;11.10;99.90;;;;;;4981052;28;20152;-80
2024/03/02 01:06:42;;;;;;;5.95;1.40;;;11.10;99.90;;;;;;4982142;28;20105;-80
2024/03/02 01:09:07;;;;;;;5.03;1.83;;;11.10;99.90;;;;;;4976947;28;20031;-80
2024/03/02 01:11:33;;;;;;;2.70;1.27;;;11.20;99.90;;;;;;4981563;28;20026;-80
2024/03/02 01:13:59;;;;;;;2.78;1.00;;;11.20;99.90;;;;;;4976494;28;20034;-80
2024/03/02 01:16:25;;;;;;;3.42;1.25;;;11.30;99.90;;;;;;4986641;28;20105;-80
2024/03/02 01:18:50;;;;;;;3.67;1.30;;;11.20;99.90;;;;;;4986423;28;20110;-80
2024/03/02 01:21:16;;;;;;;3.70;1.10;;;11.20;99.90;;;;;;4984392;28;20497;-80
2024/03/02 01:23:45;;;;;;;3.13;1.65;;;11.20;99.90;;;;;;4985473;28;20031;-79
2024/03/02 01:26:11;;;;;;;2.15;1.23;;;11.20;99.90;;;;;;4985381;28;20061;-80
2024/03/02 01:28:37;;;;;;;2.58;0.90;;;11.20;99.90;;;;;;4981904;28;20030;-80
2024/03/02 01:31:03;;;;;;;3.42;1.23;;;11.10;99.90;;;;;;4976602;28;20062;-80
2024/03/02 01:33:28;;;;;;;4.95;1.77;;;11.10;99.90;;;;;;4983400;28;20401;-80
2024/03/02 01:35:54;;;;;;;1.25;1.00;;;11.10;99.90;;;;;;4981221;28;20496;-80
2024/03/02 01:38:20;;;;;;;1.90;1.08;;;11.10;99.90;;;;;;4979660;28;20030;-80
2024/03/02 01:40:46;;;;;;;2.22;0.98;;;11.10;99.90;;;;;;4977407;28;20476;-80
2024/03/02 01:43:12;;;;;;;1.35;0.90;;;11.00;99.90;;;;;;4983484;28;20030;-80
2024/03/02 01:45:37;;;;;;;5.82;1.40;;;11.00;99.90;;;;;;4978347;28;20022;-80
2024/03/02 01:48:06;;;;;;;2.30;1.30;;;11.00;99.90;;;;;;4980130;28;20177;-80
2024/03/02 01:50:32;;;;;;;3.05;1.00;;;11.00;99.90;;;;;;4981522;28;20026;-80
2024/03/02 01:52:59;;;;;;;0.80;0.80;;;10.90;99.90;;;;;;4983937;28;20027;-80
2024/03/02 01:55:25;;;;;;;4.07;0.90;;;10.90;99.90;;;;;;4983831;28;20023;-80
2024/03/02 01:57:52;;;;;;;1.42;1.00;;;11.00;99.90;;;;;;4988461;28;20027;-80
2024/03/02 02:00:19;;;;;;;3.95;1.27;;;11.00;99.90;;;;;;4980783;28;20085;-80
2024/03/02 02:02:46;;;;;;;5.28;1.38;;;10.90;99.90;;;;;;4984399;28;20022;-80
2024/03/02 02:05:13;;;;;;;2.15;0.90;;;10.90;99.90;;;;;;4987179;28;20024;-80
2024/03/02 02:07:38;;;;;;;2.00;0.77;;;11.00;99.90;;;;;;4988209;28;20037;-80
2024/03/02 02:10:04;;;;;;;3.45;1.13;;;11.00;99.90;;;;;;4974112;28;20022;-80
2024/03/02 02:12:30;;;;;;;1.58;0.70;;;11.00;99.90;;;;;;4983074;28;20077;-80
2024/03/02 02:14:56;;;;;;;1.00;0.85;;;11.00;99.90;;;;;;4980461;28;20030;-80
2024/03/02 02:17:21;;;;;;;2.03;0.70;;;11.10;99.90;;;;;;4982280;28;20033;-80
2024/03/02 02:19:47;;;;;;;1.05;0.63;;;11.10;99.90;;;;;;4981033;28;20034;-80
2024/03/02 02:22:13;;;;;;;0.88;0.63;;;11.20;96.20;;;;;;4984214;28;20089;-80
2024/03/02 02:24:42;;;;;;;1.48;0.70;;;11.20;98.10;;;;;;4982817;28;20018;-80
2024/03/02 02:27:09;;;;;;;0.88;0.63;;;11.30;72.90;;;;;;4980286;28;20058;-80
2024/03/02 02:29:35;;;;;;;2.47;0.63;;;11.40;72.30;;;;;;4979890;28;20026;-80
2024/03/02 02:32:00;;;;;;;1.20;0.70;;;11.40;85.80;;;;;;4980821;28;20393;-80
2024/03/02 02:34:26;;;;;;;4.53;0.80;;;11.40;94.80;;;;;;4983778;28;20026;-80
2024/03/02 02:36:53;;;;;;;1.70;0.68;;;11.40;91.80;;;;;;4981887;28;20110;-80
2024/03/02 02:39:22;;;;;;;1.02;0.45;;;11.40;94.00;;;;;;4980985;28;20405;-80
2024/03/02 02:41:48;;;;;;;2.50;1.00;;;11.40;76.00;;;;;;4989642;28;20018;-80
2024/03/02 02:44:14;;;;;;;2.88;0.60;;;11.40;82.10;;;;;;4984986;28;20031;-80
2024/03/02 02:46:40;;;;;;;2.42;0.63;;;11.50;51.10;;;;;;4976033;28;20035;-80
2024/03/02 02:49:06;;;;;;;1.08;0.73;;;11.50;53.10;;;;;;4985556;28;20030;-80
2024/03/02 02:51:34;;;;;;;0.55;0.55;;;11.50;58.60;;;;;;4977114;28;20023;-80
2024/03/02 02:54:00;;;;;;;3.72;0.60;;;11.60;48.70;;;;;;4986356;28;20117;-80
2024/03/02 02:56:26;;;;;;;3.40;0.70;;;11.60;45.70;;;;;;4983425;28;20066;-80
2024/03/02 02:58:51;;;;;;;2.65;0.50;;;11.50;59.00;;;;;;4984524;28;20031;-80
2024/03/02 03:01:20;;;;;;;2.05;0.68;;;11.50;60.60;;;;;;4984538;28;20077;-79
2024/03/02 03:03:46;;;;;;;4.30;0.68;;;11.60;53.80;;;;;;4981657;28;20511;-80
2024/03/02 03:06:12;;;;;;;2.30;1.13;;;11.50;41.10;;;;;;4983592;28;20022;-80
2024/03/02 03:08:37;;;;;;;4.22;0.47;;;11.60;34.00;;;;;;4982709;28;20485;-80
2024/03/02 03:11:04;;;;;;;1.60;0.50;;;11.60;30.00;;;;;;4982666;28;20062;-80
2024/03/02 03:13:31;;;;;;;1.65;0.82;;;11.60;52.70;;;;;;4983032;28;20081;-80
2024/03/02 03:15:56;;;;;;;1.00;0.68;;;11.60;39.50;;;;;;4984066;28;20077;-80
2024/03/02 03:18:22;;;;;;;1.02;0.80;;;11.60;72.00;;;;;;4986526;28;20031;-80
2024/03/02 03:20:48;;;;;;;1.08;0.75;;;11.50;76.10;;;;;;4991501;28;20027;-80
2024/03/02 03:23:16;;;;;;;3.08;0.60;;;11.50;70.50;;;;;;4982850;28;20042;-80
2024/03/02 03:25:42;;;;;;;2.63;0.57;;;11.50;46.60;;;;;;4985748;28;20244;-80
2024/03/02 03:28:09;;;;;;;2.65;0.70;;;11.50;85.10;;;;;;4987283;28;20038;-80
2024/03/02 03:30:37;;;;;;;0.70;0.70;;;11.50;69.70;;;;;;4983409;28;20081;-80
2024/03/02 03:33:02;;;;;;;0.90;0.63;;;11.50;88.50;;;;;;4983561;28;20085;-80
2024/03/02 03:35:28;;;;;;;2.00;0.60;;;11.50;86.10;;;;;;4983375;28;20054;-80
2024/03/02 03:37:54;;;;;;;1.75;1.13;;;11.40;99.20;;;;;;4984102;28;20126;-80
2024/03/02 03:40:20;;;;;;;2.90;0.80;;;11.40;99.90;;;;;;4991635;28;20116;-80
2024/03/02 03:42:45;;;;;;;2.25;0.68;;;11.40;99.50;;;;;;4986378;28;20038;-80
2024/03/02 03:45:11;;;;;;;1.85;0.80;;;11.30;99.90;;;;;;4984560;28;20555;-80
2024/03/02 03:47:37;;;;;;;1.25;0.60;;;11.30;99.90;;;;;;4981742;28;20030;-80
2024/03/02 03:50:06;;;;;;;1.92;0.50;;;11.20;99.90;;;;;;4984577;28;20034;-80
2024/03/02 03:52:32;;;;;;;4.07;0.88;;;11.20;99.90;;;;;;4981824;28;20050;-80
2024/03/02 03:54:58;;;;;;;2.60;0.85;;;11.20;99.90;;;;;;4985472;28;20031;-80
2024/03/02 03:57:23;;;;;;;1.98;0.80;;;11.20;99.90;;;;;;4987255;28;20025;-80
2024/03/02 03:59:49;;;;;;;1.73;1.05;;;11.20;96.90;;;;;;4988816;28;20473;-80
2024/03/02 04:02:15;;;;;;;1.48;0.70;;;11.30;74.10;;;;;;4981539;28;20031;-80
2024/03/02 04:04:40;;;;;;;1.05;0.65;;;11.40;43.60;;;;;;4979211;28;20022;-80
2024/03/02 04:07:06;;;;;;;7.25;0.85;;;11.40;60.40;;;;;;4985826;28;20088;-80
2024/03/02 04:09:32;;;;;;;2.53;0.82;;;11.50;58.80;;;;;;4985944;28;20057;-80
2024/03/02 04:11:58;;;;;;;3.47;1.00;;;11.50;83.70;;;;;;4982161;28;20023;-80
2024/03/02 04:14:24;;;;;;;4.47;0.93;;;11.50;63.60;;;;;;4987084;28;20405;-80
2024/03/02 04:16:49;;;;;;;2.03;0.57;;;11.50;60.30;;;;;;4983573;28;20029;-80
2024/03/02 04:19:15;;;;;;;1.45;0.63;;;11.50;79.50;;;;;;4985521;28;20489;-80
2024/03/02 04:21:40;;;;;;;2.80;0.90;;;11.40;75.70;;;;;;4984463;28;20038;-80
2024/03/02 04:24:06;;;;;;;2.60;0.77;;;11.40;73.40;;;;;;4992700;28;20029;-80
2024/03/02 04:26:32;;;;;;;3.28;0.90;;;11.40;75.50;;;;;;4981895;28;20053;-80
2024/03/02 04:28:57;;;;;;;3.22;0.52;;;11.40;99.90;;;;;;4979297;28;20081;-80
2024/03/02 04:31:23;;;;;;;4.05;0.65;;;11.30;99.90;;;;;;4984594;28;20042;-80
2024/03/02 04:33:49;;;;;;;1.02;0.60;;;11.20;99.90;;;;;;4982384;28;20022;-80
2024/03/02 04:36:14;;;;;;;2.25;0.60;;;11.20;99.90;;;;;;4991388;28;20030;-80
2024/03/02 04:38:40;;;;;;;2.17;0.77;;;11.20;99.90;;;;;;4982633;28;20088;-80
2024/03/02 04:41:07;;;;;;;1.98;0.45;;;11.10;99.90;;;;;;4984295;28;20039;-80
2024/03/02 04:43:33;;;;;;;1.77;0.70;;;11.10;99.90;;;;;;4981031;28;20026;-80
2024/03/02 04:45:59;;;;;;;3.13;0.93;;;11.10;99.90;;;;;;4988622;28;20062;-80
2024/03/02 04:48:25;;;;;;;1.42;0.60;;;11.10;99.90;;;;;;4992043;28;20065;-80
2024/03/02 04:50:51;;;;;;;1.02;0.52;;;11.10;99.90;;;;;;4988348;28;20528;-80
2024/03/02 04:53:17;;;;;;;2.97;0.70;;;11.00;99.90;;;;;;4986061;28;20489;-80
2024/03/02 04:58:11;;;;;;;5.60;1.00;;;11.00;99.90;;;;;;4981491;28;20121;-79
2024/03/02 05:00:37;;;;;;;1.58;0.60;;;10.90;99.90;;;;;;4978852;28;20041;-80
2024/03/02 05:03:03;;;;;;;3.75;0.77;;;11.00;99.90;;;;;;4975470;28;20023;-80
2024/03/02 05:05:28;;;;;;;0.50;0.50;;;11.00;99.90;;;;;;4988786;28;21175;-79
2024/03/02 05:07:54;;;;;;;1.35;0.55;;;11.00;99.90;;;;;;4973375;28;20117;-80
2024/03/02 05:10:20;;;;;;;1.85;0.50;;;11.00;99.90;;;;;;4978060;28;20031;-80
2024/03/02 05:15:15;;;;;;;2.05;0.75;;;11.00;99.90;;;;;;4994046;28;20273;-79
2024/03/02 05:17:44;;;;;;;2.83;0.75;;;11.00;99.90;;;;;;4976015;28;20053;-79
2024/03/02 05:20:11;;;;;;;5.10;0.93;;;10.90;99.90;;;;;;4987170;28;20031;-80
2024/03/02 05:22:37;;;;;;;2.00;0.80;;;10.90;99.90;;;;;;4985348;28;20428;-80
2024/03/02 05:25:04;;;;;;;3.15;0.68;;;10.90;99.90;;;;;;4972637;28;20089;-80
2024/03/02 05:27:32;;;;;;;1.95;1.35;;;10.90;99.90;;;;;;4978218;28;20062;-80
2024/03/02 05:29:58;;;;;;;4.25;1.00;;;10.90;99.90;;;;;;4983806;28;20499;-80
2024/03/02 05:32:24;;;;;;;2.63;0.70;;;10.90;99.90;;;;;;4973928;28;20030;-79
2024/03/02 05:34:50;;;;;;;3.30;0.95;;;10.80;99.90;;;;;;4977174;28;20019;-80
2024/03/02 05:37:16;;;;;;;8.13;1.35;;;10.80;99.90;;;;;;4985194;28;20054;-80
2024/03/02 05:39:43;;;;;;;1.63;0.80;;;10.80;99.90;;;;;;4988277;28;20031;-80
2024/03/02 05:42:09;;;;;;;1.75;0.70;;;10.80;99.90;;;;;;4979156;28;20029;-80
2024/03/02 05:44:38;;;;;;;2.42;1.05;;;10.80;99.90;;;;;;4985438;28;20026;-80
2024/03/02 05:47:04;;;;;;;3.30;0.80;;;10.80;99.90;;;;;;4985529;28;20429;-80
2024/03/02 05:49:30;;;;;;;5.35;0.88;;;10.70;99.90;;;;;;4988184;28;20030;-80
2024/03/02 05:51:56;;;;;;;6.68;0.98;;;10.70;99.90;;;;;;4976028;28;20022;-80
2024/03/02 05:54:22;;;;;;;2.40;0.85;;;10.70;99.90;;;;;;4979042;28;20030;-80
2024/03/02 05:56:47;;;;;;;1.85;1.00;;;10.70;99.90;;;;;;4976489;28;20031;-80
2024/03/02 05:59:13;;;;;;;2.90;0.95;;;10.70;99.90;;;;;;4980581;28;20062;-80
2024/03/02 06:01:43;;;;;;;1.05;0.88;;;10.70;99.90;;;;;;4988435;28;20085;-80
2024/03/02 06:04:10;;;;;;;1.23;0.63;;;10.60;99.90;;;;;;4977144;28;20464;-80
2024/03/02 06:06:36;;;;;;;3.13;1.10;;;10.60;99.90;;;;;;4986415;28;20026;-80
2024/03/02 06:09:12;;;;;;;5.13;1.30;;;10.70;99.90;;;;;;4980118;28;20027;-80
2024/03/02 06:11:38;;;;;;;1.00;0.88;;;10.70;99.90;;;;;;4984578;28;20392;-80
2024/03/02 06:14:05;;;;;;;1.50;0.90;;;10.70;99.90;;;;;;4985111;28;20022;-80
2024/03/02 06:16:31;;;;;;;4.07;1.10;;;10.60;99.90;;;;;;4978412;28;20073;-80
2024/03/02 06:18:57;;;;;;;1.95;1.00;;;10.60;99.90;;;;;;4985811;28;20018;-80
2024/03/02 06:21:24;;;;;;;2.97;1.33;;;10.60;99.90;;;;;;4983238;28;20126;-80
2024/03/02 06:23:49;;;;;;;5.70;0.95;;;10.60;99.90;;;;;;4976888;28;20493;-80
2024/03/02 06:26:15;;;;;;;2.78;1.00;;;10.60;99.90;;;;;;4983373;28;20129;-80
2024/03/02 06:28:41;;;;;;;3.50;1.02;;;10.60;99.90;;;;;;4992318;28;20031;-80
2024/03/02 06:31:07;;;;;;;2.47;1.00;;;10.60;99.90;;;;;;4976455;28;20492;-80
2024/03/02 06:33:33;;;;;;;2.33;1.00;;;10.60;99.90;;;;;;4982905;28;20401;-80
2024/03/02 06:36:02;;;;;;;3.08;1.08;;;10.60;99.90;;;;;;4980308;28;20117;-80
2024/03/02 06:38:27;;;;;;;5.57;1.02;;;10.60;99.90;;;;;;4980322;28;20034;-80
2024/03/02 06:40:53;;;;;;;1.25;1.05;;;10.60;99.90;;;;;;4990567;28;20026;-80
2024/03/02 06:43:23;;;;;;;7.18;1.40;;;10.70;99.90;;;;;;4983383;28;20049;-80
2024/03/02 06:45:52;;;;;;;6.10;1.20;;;10.70;99.90;;;;;;4986802;28;20023;-80
2024/03/02 06:48:21;;;;;;;5.53;1.23;;;10.70;99.90;;;;;;4990285;28;20037;-80
2024/03/02 06:50:50;;;;;;;1.08;0.90;;;10.60;99.90;;;;;;4990970;28;20030;-80
2024/03/02 06:53:19;;;;;;;3.67;1.13;;;10.60;99.90;;;;;;4984726;28;20030;-80
2024/03/02 06:55:46;;;;;;;3.20;1.13;;;10.60;99.90;;;;;;4988293;28;20029;-80
2024/03/02 06:58:12;;;;;;;3.28;1.17;;;10.60;99.90;;;;;;4986137;28;20105;-80
2024/03/02 07:00:38;;;;;;;5.57;1.70;;;10.60;99.90;;;;;;4983963;28;20037;-80
2024/03/02 07:03:04;;;;;;;4.93;1.60;;;10.60;99.90;;;;;;4991678;28;20030;-80
2024/03/02 07:05:30;;;;;;;2.47;1.08;;;10.60;99.90;;;;;;4988255;28;20053;-80
2024/03/02 07:07:55;;;;;;;2.67;1.25;;;10.60;99.90;;;;;;4987046;28;20066;-80
2024/03/02 07:10:21;;;;;;;2.28;1.08;;;10.60;99.90;;;;;;4992080;28;20054;-80
2024/03/02 07:12:47;;;;;;;3.10;1.10;;;10.60;99.90;;;;;;4984547;28;20274;-80
2024/03/02 07:17:58;;;;;;;6.32;1.20;;;10.70;99.90;;;;;;4951189;28;20026;-80
2024/03/02 07:20:24;;;;;;;3.42;1.75;;;10.70;99.90;;;;;;4988403;28;20055;-80
2024/03/02 07:22:53;;;;;;;5.65;1.20;;;10.70;99.90;;;;;;4987349;28;20105;-80
2024/03/02 07:25:18;;;;;;;3.35;1.30;;;10.80;99.90;;;;;;4980102;28;20026;-79
2024/03/02 07:27:44;;;;;;;3.20;1.30;;;10.80;99.90;;;;;;4987638;28;20120;-80
2024/03/02 07:30:13;;;;;;;3.40;1.10;;;10.70;99.90;;;;;;4983700;28;20037;-80
2024/03/02 07:32:40;;;;;;;2.42;1.10;;;10.70;99.90;;;;;;4983338;28;20023;-80
2024/03/02 07:35:07;;;;;;;2.50;1.38;;;10.80;99.90;;;;;;4978341;28;20051;-80
2024/03/02 07:37:33;;;;;;;2.80;1.20;;;10.80;99.90;;;;;;4982259;28;20022;-80
2024/03/02 07:39:59;;;;;;;3.63;1.33;;;10.80;99.90;;;;;;4982243;28;20046;-80
2024/03/02 07:42:24;;;;;;;3.47;1.42;;;10.80;99.90;;;;;;4979499;28;20031;-80
2024/03/02 07:44:50;;;;;;;2.83;1.50;;;10.80;99.90;;;;;;4989566;28;20031;-80
2024/03/02 07:47:15;;;;;;;1.60;1.10;;;10.80;99.90;;;;;;4983032;28;20027;-80
2024/03/02 07:49:41;;;;;;;4.22;2.15;;;10.90;99.90;;;;;;4993436;28;20026;-80
2024/03/02 07:52:07;;;;;;;3.35;2.08;;;10.90;99.90;;;;;;4979566;28;20367;-80
2024/03/02 07:54:33;;;;;;;3.08;2.22;;;10.90;99.90;;;;;;4984740;28;20026;-80
2024/03/02 07:56:59;;;;;;;3.67;2.10;;;10.90;99.90;;;;;;4983637;28;20030;-80
2024/03/02 07:59:25;;;;;;;4.47;3.45;;;10.90;99.90;;;;;;4985461;28;20035;-80
2024/03/02 08:01:51;;;;;;;4.47;2.63;;;10.90;99.90;;;;;;4982832;28;20029;-80
2024/03/02 08:04:16;;;;;;;8.10;2.97;;;11.00;99.90;;;;;;4990906;28;20504;-80
2024/03/02 08:06:42;;;;;;;8.15;2.40;;;11.00;99.90;;;;;;4982570;28;20058;-80
2024/03/02 08:09:11;;;;;;;5.35;2.40;;;11.00;99.90;;;;;;4989253;28;20127;-80
2024/03/02 08:11:37;;;;;;;5.30;2.50;;;11.00;99.90;;;;;;4979573;28;20035;-80
2024/03/02 08:14:03;;;;;;;6.03;2.47;;;11.10;99.90;;;;;;4984586;28;20436;-80
2024/03/02 08:16:29;;;;;;;9.30;3.30;;;11.10;99.90;;;;;;4987649;28;20481;-80
2024/03/02 08:18:57;;;;;;;4.05;2.70;;;11.10;99.90;;;;;;4988804;28;20115;-80
2024/03/02 08:21:23;;;;;;;6.47;2.90;;;11.10;99.90;;;;;;4989774;28;20089;-80
2024/03/02 08:23:50;;;;;;;9.48;3.30;;;11.20;99.90;;;;;;4984889;28;20046;-80
2024/03/02 08:26:16;;;;;;;5.82;3.72;;;11.20;99.90;;;;;;4980950;28;20463;-80
2024/03/02 08:28:42;;;;;;;4.00;3.05;;;11.20;99.90;;;;;;4988640;28;20022;-80
2024/03/02 08:31:08;;;;;;;4.82;2.45;;;11.20;99.90;;;;;;4991219;28;20037;-80
2024/03/02 08:33:34;;;;;;;5.07;2.35;;;11.20;99.90;;;;;;4986708;28;20018;-80
2024/03/02 08:36:00;;;;;;;7.70;3.35;;;11.10;99.90;;;;;;4993990;28;20461;-80
2024/03/02 08:38:26;;;;;;;3.83;2.20;;;11.10;99.90;;;;;;4989974;28;20026;-80
2024/03/02 08:40:52;;;;;;;2.55;1.90;;;11.10;99.90;;;;;;4985049;28;20030;-80
2024/03/02 08:43:18;;;;;;;5.80;2.10;;;11.10;99.90;;;;;;4983711;28;20165;-80
2024/03/02 08:45:44;;;;;;;5.28;2.35;;;11.10;99.90;;;;;;4985325;28;20081;-80
2024/03/02 08:48:10;;;;;;;5.80;2.38;;;11.20;99.90;;;;;;4985616;28;20492;-80
2024/03/02 08:50:36;;;;;;;4.93;2.28;;;11.20;99.90;;;;;;4982892;28;20070;-80
2024/03/02 08:53:03;;;;;;;5.13;2.25;;;11.20;99.90;;;;;;4984321;28;20026;-79
2024/03/02 08:55:29;;;;;;;8.63;2.67;;;11.30;99.90;;;;;;4980453;28;20023;-80
2024/03/02 08:57:55;;;;;;;8.57;6.13;;;11.20;99.90;;;;;;4985553;28;20030;-79
2024/03/02 09:00:22;;;;;;;7.18;2.67;;;11.20;99.90;;;;;;4982091;28;20058;-80
2024/03/02 09:02:47;;;;;;;7.13;2.47;;;11.30;99.90;;;;;;4984982;28;20026;-80
2024/03/02 09:05:13;;;;;;;6.55;3.10;;;11.30;99.90;;;;;;4983228;28;20034;-80
2024/03/02 09:07:39;;;;;;;5.05;2.58;;;11.30;99.90;;;;;;4983304;28;20037;-80
2024/03/02 09:10:06;;;;;;;6.55;2.58;;;11.40;99.90;;;;;;4984038;28;20034;-80
2024/03/02 09:12:35;;;;;;;7.35;2.42;;;11.40;99.90;;;;;;4982091;28;20019;-79
2024/03/02 09:15:06;;;;;;;7.13;3.40;;;11.40;99.90;;;;;;4986839;28;20457;-80
2024/03/02 09:17:31;;;;;;;8.13;3.22;;;11.40;99.90;;;;;;4980362;28;20022;-80
2024/03/02 09:19:57;;;;;;;9.00;3.45;;;11.40;99.90;;;;;;4981754;28;20040;-80
2024/03/02 09:22:23;;;;;;;19.92;13.00;;;11.40;99.90;;;;;;4981529;28;20038;-80
2024/03/02 09:24:48;;;;;;;49.55;32.92;;;11.50;99.90;;;;;;4982021;28;20505;-80
2024/03/02 09:27:14;;;;;;;34.83;21.42;;;11.50;99.90;;;;;;4985484;28;20046;-80
2024/03/02 09:29:40;;;;;;;16.38;10.18;;;11.50;99.90;;;;;;4983228;28;20038;-80
2024/03/02 09:32:07;;;;;;;8.25;5.45;;;11.60;99.90;;;;;;4986642;28;20022;-80
2024/03/02 09:34:33;;;;;;;8.80;4.80;;;11.60;99.90;;;;;;4981855;28;20022;-80
2024/03/02 09:37:00;;;;;;;9.27;4.32;;;11.60;99.90;;;;;;4984830;28;20400;-80
2024/03/02 09:39:25;;;;;;;7.68;3.92;;;11.60;99.90;;;;;;4982602;28;20156;-80
2024/03/02 09:41:51;;;;;;;6.90;3.08;;;11.60;99.90;;;;;;4986023;28;20030;-80
2024/03/02 09:44:17;;;;;;;9.52;3.38;;;11.70;99.90;;;;;;4983929;28;20022;-80
2024/03/02 09:46:52;;;;;;;10.75;3.90;;;11.70;99.90;;;;;;4980339;28;20034;-80
2024/03/02 09:49:18;;;;;;;6.13;4.20;;;11.70;99.90;;;;;;4985200;28;20570;-80
2024/03/02 09:51:52;;;;;;;6.70;3.28;;;11.70;99.90;;;;;;4986489;28;20035;-80
2024/03/02 09:54:18;;;;;;;5.20;3.45;;;11.70;99.90;;;;;;4979749;28;20473;-80
2024/03/02 09:56:45;;;;;;;4.47;2.95;;;11.80;99.90;;;;;;4980457;28;20078;-80
2024/03/02 09:59:11;;;;;;;6.43;3.38;;;11.80;99.90;;;;;;4985157;28;20015;-80
2024/03/02 10:01:36;;;;;;;5.25;2.60;;;11.90;99.90;;;;;;4983802;28;20030;-80
2024/03/02 10:04:02;;;;;;;6.30;2.83;;;11.90;99.90;;;;;;4987802;28;20042;-80
2024/03/02 10:06:29;;;;;;;4.93;3.30;;;12.00;99.90;;;;;;4980829;28;20041;-80
2024/03/02 10:08:55;;;;;;;9.23;3.25;;;12.00;99.90;;;;;;4985029;28;20026;-80
2024/03/02 10:11:35;;;;;;;7.65;2.83;;;12.00;99.90;;;;;;4979949;28;20477;-80
2024/03/02 10:14:14;;;;;;;3.97;2.20;;;12.00;99.90;;;;;;4980645;28;20030;-80
2024/03/02 10:16:41;;;;;;;6.18;3.42;;;12.00;99.90;;;;;;4984402;28;20027;-80
2024/03/02 10:19:26;;;;;;;6.90;3.25;;;12.10;99.90;;;;;;4983893;28;20107;-80
2024/03/02 10:21:53;;;;;;;8.85;3.13;;;12.10;99.90;;;;;;4980889;28;20031;-80
2024/03/02 10:24:21;;;;;;;7.20;2.58;;;12.10;99.90;;;;;;4982712;28;20042;-80
2024/03/02 10:26:47;;;;;;;5.63;2.40;;;12.20;99.90;;;;;;4983997;28;20038;-80
2024/03/02 10:29:13;;;;;;;7.13;2.53;;;12.20;99.90;;;;;;4982218;28;20041;-80
2024/03/02 10:31:43;;;;;;;5.85;2.17;;;12.20;99.90;;;;;;4983215;28;20026;-79
2024/03/02 10:34:10;;;;;;;4.07;1.73;;;12.20;99.90;;;;;;4984448;28;20034;-80
2024/03/02 10:36:37;;;;;;;3.10;1.88;;;12.20;99.90;;;;;;4984513;28;20046;-80
2024/03/02 10:39:04;;;;;;;14.05;2.95;;;12.30;99.90;;;;;;4980109;28;20022;-80
2024/03/02 10:41:38;;;;;;;5.43;2.50;;;12.20;99.90;;;;;;4980232;28;20034;-80
2024/03/02 10:44:10;;;;;;;7.55;3.22;;;12.20;99.90;;;;;;4979772;28;20034;-80
2024/03/02 10:46:37;;;;;;;3.80;2.95;;;12.20;99.90;;;;;;4982062;28;20027;-80
2024/03/02 10:49:04;;;;;;;8.38;3.45;;;12.20;99.90;;;;;;4986355;28;20026;-80
2024/03/02 10:51:36;;;;;;;11.77;4.95;;;12.20;99.90;;;;;;4984521;28;20546;-80
2024/03/02 10:54:06;;;;;;;9.93;7.63;;;12.20;99.90;;;;;;4984367;28;20015;-80
2024/03/02 10:56:40;;;;;;;15.70;11.05;;;12.20;99.90;;;;;;4983204;28;20038;-80
2024/03/02 10:59:30;;;;;;;14.57;9.85;;;12.20;99.90;;;;;;4980325;28;20022;-80
2024/03/02 11:01:58;;;;;;;10.52;7.68;;;12.20;99.90;;;;;;4980118;28;20027;-80
2024/03/02 11:04:26;;;;;;;9.02;6.45;;;12.20;99.90;;;;;;4983693;28;20058;-80
2024/03/02 11:06:58;;;;;;;13.05;6.15;;;12.10;99.90;;;;;;4978673;28;20027;-80
2024/03/02 11:09:27;;;;;;;8.15;5.72;;;12.10;99.90;;;;;;4981024;28;20162;-79
2024/03/02 11:12:22;;;;;;;7.50;4.80;;;12.20;99.90;;;;;;4980629;28;20035;-80
2024/03/02 11:14:54;;;;;;;7.95;4.80;;;12.10;99.90;;;;;;4976158;28;20035;-79
2024/03/02 11:17:20;;;;;;;9.18;5.55;;;12.10;99.90;;;;;;4983306;28;20034;-80
2024/03/02 11:19:46;;;;;;;8.27;5.30;;;12.20;99.90;;;;;;4981214;28;20026;-80
2024/03/02 11:22:13;;;;;;;11.60;6.38;;;12.20;99.90;;;;;;4984338;28;20030;-80
2024/03/02 11:24:38;;;;;;;12.40;6.05;;;12.20;99.90;;;;;;4977847;28;20035;-80
2024/03/02 11:27:08;;;;;;;7.93;5.25;;;12.20;99.90;;;;;;4979554;28;20054;-80
2024/03/02 11:29:37;;;;;;;11.10;5.18;;;12.20;99.90;;;;;;4979877;28;20034;-80
2024/03/02 11:32:13;;;;;;;6.63;4.28;;;12.20;99.90;;;;;;4987409;28;20361;-80
2024/03/02 11:34:49;;;;;;;5.45;4.57;;;12.10;99.90;;;;;;4976537;28;20054;-80
2024/03/02 11:37:17;;;;;;;8.13;5.13;;;12.20;99.90;;;;;;4980464;28;20443;-80
2024/03/02 11:39:44;;;;;;;8.02;5.25;;;12.20;99.90;;;;;;4983431;28;20556;-80
2024/03/02 11:42:14;;;;;;;8.23;4.38;;;12.20;99.90;;;;;;4983668;28;20031;-80
2024/03/02 11:44:48;;;;;;;13.02;6.05;;;12.30;99.90;;;;;;4985337;28;20054;-80
2024/03/02 11:47:16;;;;;;;11.80;8.45;;;12.30;99.90;;;;;;4986863;28;20022;-80
2024/03/02 11:49:41;;;;;;;9.82;6.70;;;12.30;99.90;;;;;;4985087;28;20547;-80
2024/03/02 11:52:10;;;;;;;11.30;6.75;;;12.40;99.90;;;;;;4983301;28;20026;-80
2024/03/02 11:54:46;;;;;;;9.93;5.78;;;12.50;99.90;;;;;;4985624;28;20064;-80
2024/03/02 11:57:12;;;;;;;8.88;6.78;;;12.50;99.90;;;;;;4981059;28;20027;-79
2024/03/02 11:59:38;;;;;;;9.55;5.35;;;12.60;99.90;;;;;;4987282;28;20552;-80
2024/03/02 12:02:04;;;;;;;7.75;5.25;;;12.50;99.90;;;;;;4985166;28;20031;-80
2024/03/02 12:04:30;;;;;;;12.48;8.50;;;12.50;99.90;;;;;;4989540;28;20018;-79
2024/03/02 12:07:00;;;;;;;9.23;6.85;;;12.50;99.90;;;;;;4981328;28;20034;-80
2024/03/02 12:09:30;;;;;;;14.38;8.07;;;12.60;99.90;;;;;;4980928;28;20076;-80
2024/03/02 12:12:22;;;;;;;8.60;5.50;;;12.60;99.90;;;;;;4985384;28;20042;-80
2024/03/02 12:14:52;;;;;;;10.93;9.48;;;12.70;99.90;;;;;;4976941;28;20062;-80
2024/03/02 12:17:18;;;;;;;9.45;6.03;;;12.70;99.90;;;;;;4984982;28;20031;-80
2024/03/02 12:19:45;;;;;;;6.75;4.72;;;12.80;99.90;;;;;;4984341;28;20027;-80
2024/03/02 12:22:11;;;;;;;5.20;4.38;;;12.90;99.90;;;;;;4981044;28;20505;-80
2024/03/02 12:24:37;;;;;;;6.72;4.20;;;12.90;99.90;;;;;;4979470;28;20065;-80
2024/03/02 12:27:05;;;;;;;7.78;5.20;;;12.90;99.90;;;;;;4983039;28;20074;-80
2024/03/02 12:29:31;;;;;;;6.07;3.78;;;12.90;99.90;;;;;;4989685;28;20477;-80
2024/03/02 12:31:57;;;;;;;5.72;3.83;;;13.00;99.90;;;;;;4987885;28;20060;-80
2024/03/02 12:34:23;;;;;;;10.00;4.45;;;13.00;99.90;;;;;;4985048;28;20033;-80
2024/03/02 12:36:52;;;;;;;4.97;4.55;;;13.00;99.90;;;;;;4982362;28;20018;-80
2024/03/02 12:39:19;;;;;;;5.00;3.47;;;13.10;99.90;;;;;;4985848;28;20018;-80
2024/03/02 12:41:50;;;;;;;5.30;3.80;;;13.10;99.90;;;;;;4977682;28;20556;-80
2024/03/02 12:44:19;;;;;;;4.45;2.97;;;13.00;99.90;;;;;;4980658;28;20026;-80
2024/03/02 12:46:46;;;;;;;4.03;3.47;;;12.90;99.90;;;;;;4983660;28;20031;-80
2024/03/02 12:49:13;;;;;;;2.97;2.53;;;12.90;99.90;;;;;;4989821;28;20035;-80
2024/03/02 12:51:40;;;;;;;8.00;3.83;;;12.90;99.90;;;;;;4981814;28;20029;-80
2024/03/02 12:54:12;;;;;;;4.13;2.88;;;12.90;99.90;;;;;;4978292;28;20038;-79